Time;durP1;ratioP1;P1;durP2;ratioP2;P2;SDS_P1;SDS_P2;PMS_P1;PMS_P2;Temp;Humidity;BMP_temperature;BMP_pressure;BME280_temperature;BME280_humidity;BME280_pressure;Samples;Min_cycle;Max_cycle;Signal;HPM_P1;HPM_P2
2023/01/21 00:02:24;;;;;;;14.60;12.27;;;1.40;99.90;;;;;;5073727;28;20174;-71
2023/01/21 00:04:50;;;;;;;13.47;12.13;;;1.30;99.90;;;;;;5056694;28;20252;-72
2023/01/21 00:07:15;;;;;;;14.57;12.53;;;1.30;99.90;;;;;;5073510;28;20166;-72
2023/01/21 00:09:41;;;;;;;15.67;14.00;;;1.30;99.90;;;;;;5073163;28;20201;-72
2023/01/21 00:12:06;;;;;;;15.70;13.03;;;1.20;99.90;;;;;;5073661;28;20170;-72
2023/01/21 00:14:32;;;;;;;15.30;13.70;;;1.20;99.90;;;;;;5076959;28;20162;-73
2023/01/21 00:16:58;;;;;;;15.30;13.70;;;0.90;99.90;;;;;;5076473;28;20170;-72
2023/01/21 00:19:24;;;;;;;15.57;13.97;;;0.90;99.90;;;;;;5076308;28;20193;-71
2023/01/21 00:21:50;;;;;;;15.07;13.03;;;0.90;99.90;;;;;;5076331;28;20830;-71
2023/01/21 00:24:15;;;;;;;18.17;15.03;;;0.90;99.90;;;;;;5076459;28;20442;-70
2023/01/21 00:26:41;;;;;;;16.40;13.90;;;0.80;99.90;;;;;;5076114;28;20414;-72
2023/01/21 00:29:07;;;;;;;17.07;14.50;;;0.80;99.90;;;;;;5075981;28;20570;-73
2023/01/21 00:31:32;;;;;;;15.87;13.77;;;1.00;99.90;;;;;;5076685;28;20158;-72
2023/01/21 00:33:58;;;;;;;16.90;12.83;;;1.00;99.90;;;;;;5076295;28;20158;-72
2023/01/21 00:36:28;;;;;;;14.50;12.50;;;1.00;99.90;;;;;;5076066;28;20193;-73
2023/01/21 00:38:56;;;;;;;14.47;12.77;;;1.00;99.90;;;;;;5076369;28;20184;-71
2023/01/21 00:41:25;;;;;;;14.93;13.33;;;1.00;99.90;;;;;;5077378;28;20404;-72
2023/01/21 00:43:51;;;;;;;15.13;12.77;;;1.00;99.90;;;;;;5076270;28;20399;-72
2023/01/21 00:46:17;;;;;;;14.63;13.07;;;1.00;99.90;;;;;;5076900;28;20503;-72
2023/01/21 00:48:43;;;;;;;15.37;13.53;;;0.90;99.90;;;;;;5077256;28;20477;-73
2023/01/21 00:51:09;;;;;;;16.10;14.10;;;0.90;99.90;;;;;;5077470;28;20865;-72
2023/01/21 00:53:40;;;;;;;15.80;13.60;;;0.90;99.90;;;;;;5079627;28;20408;-72
2023/01/21 00:56:09;;;;;;;15.80;13.90;;;0.80;99.90;;;;;;5085203;28;20380;-72
2023/01/21 00:58:35;;;;;;;15.80;12.67;;;0.90;99.90;;;;;;5064200;28;20432;-72
2023/01/21 01:01:03;;;;;;;14.80;13.10;;;0.90;99.90;;;;;;5078271;28;20423;-72
2023/01/21 01:03:30;;;;;;;16.80;12.73;;;1.00;99.90;;;;;;5076117;28;20407;-72
2023/01/21 01:06:04;;;;;;;14.37;12.37;;;1.00;99.90;;;;;;5076010;28;20404;-72
2023/01/21 01:08:30;;;;;;;16.87;14.20;;;1.10;99.90;;;;;;5075688;28;20391;-70
2023/01/21 01:10:56;;;;;;;15.47;13.80;;;1.10;99.90;;;;;;5075340;28;20729;-72
2023/01/21 01:13:21;;;;;;;16.13;14.27;;;1.10;99.90;;;;;;5074628;28;20400;-72
2023/01/21 01:15:50;;;;;;;15.43;13.80;;;1.20;99.90;;;;;;5075686;28;20170;-72
2023/01/21 01:18:16;;;;;;;14.40;12.90;;;1.20;99.90;;;;;;5075458;28;20166;-72
2023/01/21 01:20:42;;;;;;;14.67;13.17;;;1.20;99.90;;;;;;5057290;28;20411;-69
2023/01/21 01:23:07;;;;;;;13.07;11.60;;;1.20;99.90;;;;;;5075101;28;20200;-72
2023/01/21 01:25:34;;;;;;;15.80;13.33;;;1.20;99.90;;;;;;5074952;28;20423;-71
2023/01/21 01:27:59;;;;;;;18.47;14.30;;;1.20;99.90;;;;;;5073804;28;20249;-72
2023/01/21 01:30:25;;;;;;;18.33;15.20;;;1.30;99.90;;;;;;5074828;28;20534;-72
2023/01/21 01:32:50;;;;;;;16.67;14.30;;;1.30;99.90;;;;;;5075126;28;20166;-72
2023/01/21 01:35:16;;;;;;;16.50;14.77;;;1.20;99.90;;;;;;5073193;28;20178;-71
2023/01/21 01:37:41;;;;;;;16.60;13.97;;;1.10;99.90;;;;;;5056133;28;20178;-72
2023/01/21 01:40:09;;;;;;;17.30;14.27;;;0.80;99.90;;;;;;5055190;28;20208;-70
2023/01/21 01:42:35;;;;;;;17.27;14.77;;;0.60;99.90;;;;;;5056195;28;20181;-72
2023/01/21 01:45:06;;;;;;;17.10;13.37;;;0.60;99.90;;;;;;5036628;28;20500;-72
2023/01/21 01:47:38;;;;;;;17.67;15.20;;;0.70;99.90;;;;;;5036438;28;20225;-72
2023/01/21 01:50:07;;;;;;;14.60;13.10;;;0.80;99.90;;;;;;5054681;28;20469;-72
2023/01/21 01:52:33;;;;;;;16.07;14.37;;;0.80;99.90;;;;;;5036352;28;20497;-72
2023/01/21 01:55:01;;;;;;;15.63;13.33;;;0.70;99.90;;;;;;5054050;28;21004;-72
2023/01/21 01:57:32;;;;;;;18.80;14.97;;;0.70;99.90;;;;;;5060735;28;20169;-72
2023/01/21 02:00:04;;;;;;;16.43;13.20;;;0.70;99.90;;;;;;5056179;28;20436;-72
2023/01/21 02:02:31;;;;;;;16.47;14.63;;;0.70;99.90;;;;;;5071039;28;20428;-72
2023/01/21 02:05:02;;;;;;;17.07;14.27;;;0.60;99.90;;;;;;5073926;28;20408;-73
2023/01/21 02:07:31;;;;;;;15.30;13.70;;;0.50;99.90;;;;;;5074295;28;20529;-72
2023/01/21 02:09:58;;;;;;;16.37;13.80;;;0.30;99.90;;;;;;5073964;28;20478;-72
2023/01/21 02:12:23;;;;;;;15.90;13.17;;;0.10;99.90;;;;;;5073436;28;20405;-72
2023/01/21 02:14:50;;;;;;;15.07;13.33;;;0.00;99.90;;;;;;5073722;28;20407;-73
2023/01/21 02:17:38;;;;;;;17.07;14.17;;;0.00;99.90;;;;;;5073767;28;20167;-72
2023/01/21 02:20:38;;;;;;;13.43;12.03;;;0.00;99.90;;;;;;5073887;28;20428;-72
2023/01/21 02:23:26;;;;;;;15.50;13.17;;;-0.10;99.90;;;;;;5074149;28;20440;-72
2023/01/21 02:26:13;;;;;;;17.97;12.83;;;0.00;99.90;;;;;;5055853;28;20575;-72
2023/01/21 02:28:47;;;;;;;16.80;14.80;;;0.00;99.90;;;;;;5072284;28;20444;-72
2023/01/21 02:31:24;;;;;;;15.30;13.40;;;0.00;99.90;;;;;;5074167;28;20386;-72
2023/01/21 02:34:14;;;;;;;17.13;13.33;;;-0.10;99.90;;;;;;5073997;28;20384;-71
2023/01/21 02:36:52;;;;;;;13.53;12.17;;;-0.20;99.90;;;;;;5072638;28;20399;-72
2023/01/21 02:39:43;;;;;;;15.93;14.23;;;-0.10;99.90;;;;;;5073745;28;20425;-72
2023/01/21 02:42:26;;;;;;;16.77;13.83;;;-0.20;99.90;;;;;;5072961;28;20383;-72
2023/01/21 02:45:05;;;;;;;18.67;13.70;;;-0.40;99.90;;;;;;5073770;28;20904;-72
2023/01/21 02:47:39;;;;;;;15.40;13.80;;;-0.40;99.90;;;;;;5073385;28;20417;-72
2023/01/21 02:50:19;;;;;;;14.93;13.33;;;-0.40;99.90;;;;;;5073155;28;20457;-72
2023/01/21 02:52:52;;;;;;;16.17;13.30;;;-0.50;99.90;;;;;;5073704;28;20906;-71
2023/01/21 02:55:18;;;;;;;16.40;13.87;;;-0.50;99.90;;;;;;5074423;28;20388;-72
2023/01/21 02:57:53;;;;;;;14.70;13.10;;;-0.50;99.90;;;;;;5072945;28;20417;-71
2023/01/21 03:00:56;;;;;;;16.07;12.90;;;-0.50;99.90;;;;;;5073107;28;20424;-71
2023/01/21 03:03:59;;;;;;;15.37;12.43;;;-0.50;99.90;;;;;;5056243;28;20442;-73
2023/01/21 03:06:47;;;;;;;13.27;11.17;;;-0.60;99.90;;;;;;5073194;28;20402;-71
2023/01/21 03:09:26;;;;;;;16.23;11.10;;;-0.80;99.90;;;;;;5073963;28;20457;-71
2023/01/21 03:12:00;;;;;;;12.83;10.57;;;-1.00;99.90;;;;;;5073863;28;20794;-71
2023/01/21 03:17:59;;;;;;;10.70;9.40;;;-0.90;99.90;;;;;;5073223;28;20973;-72
2023/01/21 03:20:39;;;;;;;10.70;9.60;;;-0.90;99.90;;;;;;5073161;28;20425;-71
2023/01/21 03:23:09;;;;;;;11.17;9.97;;;-0.90;99.90;;;;;;5055456;28;20400;-73
2023/01/21 03:25:36;;;;;;;11.00;9.40;;;-0.90;99.90;;;;;;5055269;28;20408;-73
2023/01/21 03:28:07;;;;;;;10.90;8.57;;;-0.90;99.90;;;;;;5077093;28;20431;-73
2023/01/21 03:30:35;;;;;;;9.83;8.30;;;-0.80;99.90;;;;;;5061201;28;20458;-72
2023/01/21 03:33:02;;;;;;;8.63;7.80;;;-0.80;99.90;;;;;;5071025;28;20474;-72
2023/01/21 03:35:31;;;;;;;11.03;9.07;;;-1.00;99.90;;;;;;5053991;28;20500;-73
2023/01/21 03:38:04;;;;;;;9.00;8.10;;;-0.90;99.90;;;;;;5052738;28;20412;-72
2023/01/21 03:40:39;;;;;;;14.67;10.03;;;-0.80;99.90;;;;;;5053163;28;20424;-72
2023/01/21 03:43:05;;;;;;;9.70;8.70;;;-0.80;99.90;;;;;;5052516;28;20425;-72
2023/01/21 03:45:40;;;;;;;9.13;7.83;;;-0.70;99.90;;;;;;5052849;28;20445;-71
2023/01/21 03:48:24;;;;;;;8.60;7.67;;;-0.80;99.90;;;;;;5055486;28;20581;-70
2023/01/21 03:50:55;;;;;;;9.57;8.13;;;-0.80;99.90;;;;;;5038480;28;20448;-71
2023/01/21 03:53:21;;;;;;;8.73;7.83;;;-0.90;99.90;;;;;;5038994;28;20404;-72
2023/01/21 03:55:50;;;;;;;9.87;8.27;;;-0.90;99.90;;;;;;5056693;28;20403;-71
2023/01/21 03:58:15;;;;;;;10.07;7.93;;;-1.00;99.90;;;;;;5049194;28;20175;-72
2023/01/21 04:00:41;;;;;;;9.60;8.60;;;-0.90;99.90;;;;;;5076493;28;20413;-72
2023/01/21 04:03:06;;;;;;;9.50;8.50;;;-0.90;99.90;;;;;;5076638;28;20187;-72
2023/01/21 04:05:32;;;;;;;9.10;7.47;;;-0.80;99.90;;;;;;5058348;28;20219;-72
2023/01/21 04:07:57;;;;;;;11.03;8.70;;;-0.80;99.90;;;;;;5058464;28;20174;-72
2023/01/21 04:10:23;;;;;;;8.63;7.53;;;-0.70;99.90;;;;;;5076424;28;20199;-72
2023/01/21 04:12:48;;;;;;;8.83;7.73;;;-0.70;99.90;;;;;;5076640;28;20169;-72
2023/01/21 04:15:14;;;;;;;9.27;7.63;;;-0.80;99.90;;;;;;5058266;28;20166;-72
2023/01/21 04:17:39;;;;;;;7.93;7.13;;;-0.80;99.90;;;;;;5076224;28;20194;-72
2023/01/21 04:20:06;;;;;;;10.57;8.20;;;-0.70;99.90;;;;;;5076122;28;20191;-72
2023/01/21 04:22:32;;;;;;;8.00;7.20;;;-0.80;99.90;;;;;;5075770;28;20170;-72
2023/01/21 04:24:57;;;;;;;10.63;8.20;;;-0.80;99.90;;;;;;5075266;28;20452;-72
2023/01/21 04:27:23;;;;;;;10.57;8.50;;;-0.90;99.90;;;;;;5075540;28;20182;-72
2023/01/21 04:29:48;;;;;;;8.60;7.40;;;-0.90;99.90;;;;;;5074326;28;20689;-72
2023/01/21 04:32:14;;;;;;;8.37;7.30;;;-1.00;99.90;;;;;;5076093;28;20236;-72
2023/01/21 04:34:40;;;;;;;7.03;6.30;;;-1.00;99.90;;;;;;5076083;28;20231;-72
2023/01/21 04:37:05;;;;;;;7.40;6.13;;;-0.90;99.90;;;;;;5076147;28;20237;-72
2023/01/21 04:39:31;;;;;;;7.60;6.70;;;-1.00;99.90;;;;;;5076211;28;20219;-72
2023/01/21 04:41:56;;;;;;;8.47;6.67;;;-0.90;99.90;;;;;;5076086;28;20226;-72
2023/01/21 04:44:22;;;;;;;6.63;6.00;;;-0.90;99.90;;;;;;5075576;28;20529;-72
2023/01/21 04:46:47;;;;;;;7.67;5.63;;;-0.80;99.90;;;;;;5058629;28;20597;-72
2023/01/21 04:49:13;;;;;;;7.57;5.93;;;-0.80;99.90;;;;;;5087820;22;20226;-70
2023/01/21 04:51:38;;;;;;;6.87;5.00;;;-0.90;99.90;;;;;;5055301;28;20172;-70
2023/01/21 04:54:04;;;;;;;5.20;4.70;;;-0.80;99.90;;;;;;5055208;28;20591;-71
2023/01/21 04:56:30;;;;;;;5.87;5.27;;;-0.80;99.90;;;;;;5055143;28;20748;-70
2023/01/21 04:58:55;;;;;;;6.00;5.40;;;-0.90;99.90;;;;;;5053911;28;20196;-71
2023/01/21 05:01:21;;;;;;;6.40;5.73;;;-0.90;99.90;;;;;;5055334;28;20621;-71
2023/01/21 05:03:46;;;;;;;6.60;5.83;;;-0.90;99.90;;;;;;5037276;28;20180;-71
2023/01/21 05:06:12;;;;;;;7.53;5.67;;;-0.80;99.90;;;;;;5055695;28;20168;-70
2023/01/21 05:08:37;;;;;;;6.23;5.60;;;-0.80;99.90;;;;;;5038080;28;20163;-70
2023/01/21 05:11:03;;;;;;;7.20;6.30;;;-0.80;99.90;;;;;;5054871;28;20211;-70
2023/01/21 05:13:28;;;;;;;7.00;5.97;;;-0.90;99.90;;;;;;5037015;28;20664;-70
2023/01/21 05:15:54;;;;;;;7.27;6.00;;;-0.90;99.90;;;;;;5054845;28;20165;-71
2023/01/21 05:18:20;;;;;;;7.53;6.23;;;-1.00;99.90;;;;;;5054926;28;20242;-70
2023/01/21 05:20:45;;;;;;;6.67;6.07;;;-1.00;99.90;;;;;;5054366;28;20217;-70
2023/01/21 05:23:11;;;;;;;7.90;6.57;;;-1.10;99.90;;;;;;5054661;28;20244;-70
2023/01/21 05:25:36;;;;;;;8.93;7.30;;;-1.10;99.90;;;;;;5054635;28;20178;-70
2023/01/21 05:28:02;;;;;;;9.13;6.83;;;-1.20;99.90;;;;;;5054275;28;20254;-69
2023/01/21 05:30:27;;;;;;;8.17;6.87;;;-1.30;99.90;;;;;;5054057;28;20197;-71
2023/01/21 05:32:54;;;;;;;8.40;6.93;;;-1.20;99.90;;;;;;5054734;28;20162;-70
2023/01/21 05:35:21;;;;;;;10.33;7.70;;;-1.30;99.90;;;;;;5054388;28;20193;-70
2023/01/21 05:37:46;;;;;;;9.60;8.60;;;-1.40;99.90;;;;;;5054615;28;20437;-71
2023/01/21 05:40:16;;;;;;;8.93;8.00;;;-1.40;99.90;;;;;;5053363;28;20457;-71
2023/01/21 05:42:42;;;;;;;8.20;7.27;;;-1.40;99.90;;;;;;5054492;28;20173;-70
2023/01/21 05:45:10;;;;;;;13.07;10.00;;;-1.30;99.90;;;;;;5053758;28;20397;-71
2023/01/21 05:47:36;;;;;;;13.87;9.73;;;-1.30;99.90;;;;;;5054397;28;20413;-71
2023/01/21 05:50:02;;;;;;;13.63;9.73;;;-1.20;99.90;;;;;;5054406;28;20972;-71
2023/01/21 05:52:27;;;;;;;12.07;10.10;;;-1.20;99.90;;;;;;5036362;28;20213;-70
2023/01/21 05:54:53;;;;;;;11.40;9.73;;;-1.30;99.90;;;;;;5054376;28;20402;-70
2023/01/21 05:57:18;;;;;;;14.80;10.93;;;-1.20;99.90;;;;;;5054144;28;20168;-70
2023/01/21 05:59:44;;;;;;;13.20;11.20;;;-1.30;99.90;;;;;;5053382;28;20196;-70
2023/01/21 06:02:10;;;;;;;13.53;11.33;;;-1.30;99.90;;;;;;5054559;28;20603;-71
2023/01/21 06:04:35;;;;;;;13.70;12.30;;;-1.20;99.90;;;;;;5054201;28;20606;-70
2023/01/21 06:07:01;;;;;;;12.97;11.33;;;-1.20;99.90;;;;;;5054128;28;20540;-71
2023/01/21 06:09:26;;;;;;;16.57;12.20;;;-1.20;99.90;;;;;;5053807;28;20559;-70
2023/01/21 06:11:52;;;;;;;17.53;12.20;;;-1.00;99.90;;;;;;5053967;28;20534;-71
2023/01/21 06:14:17;;;;;;;12.57;11.27;;;-1.00;99.90;;;;;;5053291;28;20177;-70
2023/01/21 06:16:43;;;;;;;13.97;11.53;;;-0.90;99.90;;;;;;5053607;28;20569;-70
2023/01/21 06:19:08;;;;;;;16.03;13.87;;;-0.80;99.90;;;;;;5053529;28;20187;-70
2023/01/21 06:21:34;;;;;;;16.33;13.47;;;-0.70;99.90;;;;;;5053520;28;20205;-70
2023/01/21 06:24:01;;;;;;;17.23;14.27;;;-0.50;99.90;;;;;;5053791;28;20172;-71
2023/01/21 06:26:27;;;;;;;17.30;14.10;;;-0.30;99.90;;;;;;5053669;28;20166;-70
2023/01/21 06:28:55;;;;;;;20.10;16.87;;;-0.30;99.90;;;;;;5051996;28;20424;-71
2023/01/21 06:31:20;;;;;;;21.33;16.97;;;-0.20;99.90;;;;;;5053990;28;20533;-71
2023/01/21 06:33:46;;;;;;;22.70;17.40;;;-0.10;99.90;;;;;;5035927;28;20446;-71
2023/01/21 06:36:11;;;;;;;22.13;18.53;;;-0.10;99.90;;;;;;5053724;28;20159;-71
2023/01/21 06:38:37;;;;;;;21.47;18.30;;;-0.10;99.90;;;;;;5053677;28;20247;-71
2023/01/21 06:41:03;;;;;;;19.40;17.13;;;-0.30;99.90;;;;;;5035892;28;20616;-71
2023/01/21 06:43:29;;;;;;;20.50;16.67;;;-0.60;99.90;;;;;;5053734;28;20510;-71
2023/01/21 06:45:55;;;;;;;20.37;16.53;;;-0.70;99.90;;;;;;5053631;28;20520;-71
2023/01/21 06:48:20;;;;;;;24.20;18.57;;;-0.90;99.90;;;;;;5053251;28;20607;-71
2023/01/21 06:50:46;;;;;;;20.30;17.57;;;-0.80;99.90;;;;;;5053051;28;20202;-71
2023/01/21 06:53:12;;;;;;;23.33;19.83;;;-0.90;99.90;;;;;;5053205;28;20540;-71
2023/01/21 06:55:37;;;;;;;33.60;21.43;;;-0.90;99.90;;;;;;5035278;28;20208;-70
2023/01/21 06:58:03;;;;;;;27.20;21.30;;;-0.90;99.90;;;;;;5052460;28;20230;-71
2023/01/21 07:00:28;;;;;;;36.57;27.23;;;-0.90;99.90;;;;;;5052456;28;20583;-70
2023/01/21 07:02:58;;;;;;;33.77;23.93;;;-0.90;99.90;;;;;;5053540;28;20179;-71
2023/01/21 07:05:24;;;;;;;36.80;30.77;;;-0.80;99.90;;;;;;5053137;28;20180;-71
2023/01/21 07:07:53;;;;;;;35.03;25.47;;;-0.70;99.90;;;;;;5053118;28;20414;-71
2023/01/21 07:10:18;;;;;;;36.30;26.43;;;-0.80;99.90;;;;;;5052976;28;20466;-71
2023/01/21 07:12:44;;;;;;;29.00;22.47;;;-0.70;99.90;;;;;;5035150;28;20781;-71
2023/01/21 07:15:10;;;;;;;34.80;30.37;;;-0.60;99.90;;;;;;5034561;28;20656;-71
2023/01/21 07:17:35;;;;;;;44.87;33.67;;;-0.90;99.90;;;;;;5053308;28;20246;-71
2023/01/21 07:20:01;;;;;;;35.20;25.50;;;-0.80;99.90;;;;;;5053179;28;20190;-71
2023/01/21 07:22:26;;;;;;;34.50;27.23;;;-0.80;99.90;;;;;;5054615;28;20212;-71
2023/01/21 07:24:52;;;;;;;33.63;25.83;;;-0.60;99.90;;;;;;5056833;28;20163;-71
2023/01/21 07:27:17;;;;;;;37.40;25.33;;;-0.50;99.90;;;;;;5056923;28;20230;-71
2023/01/21 07:29:43;;;;;;;34.47;25.57;;;-0.40;99.90;;;;;;5055384;28;20197;-71
2023/01/21 07:32:08;;;;;;;40.17;34.60;;;-0.20;99.90;;;;;;5056943;28;20161;-71
2023/01/21 07:34:34;;;;;;;35.57;27.73;;;-0.60;99.90;;;;;;5056585;28;20547;-71
2023/01/21 07:36:59;;;;;;;36.40;24.53;;;-0.70;99.90;;;;;;5056584;28;20210;-71
2023/01/21 07:39:25;;;;;;;37.47;23.53;;;-0.50;99.90;;;;;;5056564;28;20192;-70
2023/01/21 07:41:52;;;;;;;28.40;21.47;;;-0.90;99.90;;;;;;5056429;28;20195;-71
2023/01/21 07:44:17;;;;;;;33.13;26.40;;;-1.20;99.90;;;;;;5056349;28;20589;-71
2023/01/21 07:46:43;;;;;;;35.17;26.20;;;-1.30;99.90;;;;;;5057006;28;20414;-71
2023/01/21 07:49:11;;;;;;;33.27;25.43;;;-1.10;99.90;;;;;;5055416;28;20676;-71
2023/01/21 07:51:37;;;;;;;31.97;24.27;;;-0.90;99.90;;;;;;5056929;28;20243;-71
2023/01/21 07:54:03;;;;;;;36.37;23.90;;;-0.90;99.90;;;;;;5056402;28;20437;-70
2023/01/21 07:56:28;;;;;;;30.43;24.30;;;-0.80;99.90;;;;;;5056765;28;20176;-70
2023/01/21 07:58:54;;;;;;;29.10;22.10;;;-0.90;99.90;;;;;;5055651;28;20184;-71
2023/01/21 08:01:19;;;;;;;29.43;22.00;;;-0.70;99.90;;;;;;5056275;28;20179;-71
2023/01/21 08:03:45;;;;;;;37.23;26.40;;;-0.60;99.90;;;;;;5056174;28;20164;-71
2023/01/21 08:06:11;;;;;;;34.60;24.63;;;-0.40;99.90;;;;;;5056396;28;20247;-71
2023/01/21 08:08:36;;;;;;;30.50;23.60;;;-0.40;99.90;;;;;;5056413;28;20162;-71
2023/01/21 08:11:02;;;;;;;27.20;21.80;;;-0.70;99.90;;;;;;5056150;28;20451;-71
2023/01/21 08:13:28;;;;;;;30.53;22.77;;;-0.90;99.90;;;;;;5056195;28;20249;-72
2023/01/21 08:15:55;;;;;;;29.00;22.60;;;-0.90;99.90;;;;;;5055833;28;20171;-71
2023/01/21 08:18:21;;;;;;;31.47;23.63;;;-0.80;99.90;;;;;;5055798;28;20159;-71
2023/01/21 08:20:52;;;;;;;30.40;21.80;;;-0.60;99.90;;;;;;5053980;28;20454;-70
2023/01/21 08:23:17;;;;;;;34.63;24.87;;;-0.60;99.90;;;;;;5046546;28;20502;-70
2023/01/21 08:25:43;;;;;;;33.63;22.83;;;-0.50;99.90;;;;;;5055415;28;20493;-70
2023/01/21 08:28:08;;;;;;;31.77;21.77;;;-0.40;99.90;;;;;;5056020;28;20165;-70
2023/01/21 08:30:34;;;;;;;31.60;22.43;;;-0.60;99.90;;;;;;5054276;28;20263;-70
2023/01/21 08:33:00;;;;;;;31.30;22.20;;;-0.30;99.90;;;;;;5055147;28;20178;-70
2023/01/21 08:35:26;;;;;;;30.23;23.33;;;-0.60;99.90;;;;;;5054904;28;20457;-70
2023/01/21 08:37:55;;;;;;;32.63;23.30;;;-0.80;99.90;;;;;;5037793;28;20211;-71
2023/01/21 08:40:20;;;;;;;31.43;21.70;;;-0.70;99.90;;;;;;5055635;28;20185;-71
2023/01/21 08:42:46;;;;;;;35.30;21.90;;;-0.60;99.90;;;;;;5056065;28;20438;-71
2023/01/21 08:45:11;;;;;;;31.80;22.53;;;-0.60;99.90;;;;;;5055440;28;20536;-70
2023/01/21 08:47:37;;;;;;;27.60;21.27;;;-0.40;99.90;;;;;;5038870;28;20523;-71
2023/01/21 08:50:03;;;;;;;32.70;22.80;;;-0.20;99.90;;;;;;5038928;28;20255;-71
2023/01/21 08:52:28;;;;;;;32.57;22.97;;;0.00;99.90;;;;;;5021978;28;20700;-71
2023/01/21 08:54:54;;;;;;;36.23;24.80;;;0.40;99.90;;;;;;5055992;28;20224;-70
2023/01/21 08:57:19;;;;;;;33.40;22.00;;;0.40;99.90;;;;;;5056322;28;20173;-71
2023/01/21 08:59:45;;;;;;;33.43;22.97;;;0.50;99.90;;;;;;5056228;28;20202;-71
2023/01/21 09:02:11;;;;;;;28.97;21.00;;;0.50;99.90;;;;;;5037707;28;20176;-72
2023/01/21 09:04:36;;;;;;;33.47;21.80;;;0.30;99.90;;;;;;5055908;28;20703;-72
2023/01/21 09:07:02;;;;;;;29.63;22.70;;;0.30;99.90;;;;;;5055744;28;20408;-71
2023/01/21 09:09:28;;;;;;;29.83;21.43;;;0.30;99.90;;;;;;5055330;28;20194;-70
2023/01/21 09:11:53;;;;;;;31.07;21.93;;;0.40;99.90;;;;;;5054894;28;20213;-70
2023/01/21 09:14:19;;;;;;;33.37;22.17;;;0.40;99.90;;;;;;5054564;28;20232;-70
2023/01/21 09:16:48;;;;;;;29.13;21.27;;;0.50;99.90;;;;;;5054810;28;20181;-71
2023/01/21 09:19:13;;;;;;;30.40;22.37;;;0.70;99.90;;;;;;5055216;28;20515;-70
2023/01/21 09:21:39;;;;;;;28.93;22.17;;;0.60;99.90;;;;;;5054640;28;20840;-70
2023/01/21 09:24:05;;;;;;;24.63;18.07;;;0.40;99.90;;;;;;5054684;28;20177;-71
2023/01/21 09:26:31;;;;;;;35.80;22.07;;;0.20;99.90;;;;;;5053755;28;20633;-71
2023/01/21 09:28:59;;;;;;;31.33;21.27;;;0.10;99.90;;;;;;5053431;28;20417;-71
2023/01/21 09:31:26;;;;;;;36.30;23.40;;;0.20;99.90;;;;;;5053929;28;20167;-71
2023/01/21 09:33:58;;;;;;;29.40;20.53;;;0.50;99.90;;;;;;5054984;28;20434;-70
2023/01/21 09:36:26;;;;;;;29.63;21.80;;;0.40;99.90;;;;;;5054320;28;20448;-70
2023/01/21 09:38:53;;;;;;;31.60;21.50;;;0.50;99.90;;;;;;5054469;28;20547;-70
2023/01/21 09:41:32;;;;;;;27.00;20.33;;;0.40;99.90;;;;;;5054483;28;20409;-70
2023/01/21 09:44:31;;;;;;;28.13;20.50;;;0.40;99.90;;;;;;5036268;28;20771;-71
2023/01/21 09:47:07;;;;;;;26.23;18.87;;;0.60;99.90;;;;;;5036469;28;20420;-71
2023/01/21 09:49:48;;;;;;;31.17;20.10;;;0.20;99.90;;;;;;5036024;28;20467;-71
2023/01/21 09:52:38;;;;;;;24.20;17.77;;;0.30;99.90;;;;;;5054098;28;20407;-71
2023/01/21 09:55:09;;;;;;;23.13;18.80;;;0.50;99.90;;;;;;5054211;28;20477;-70
2023/01/21 09:57:50;;;;;;;27.93;20.60;;;0.50;99.90;;;;;;5054406;28;20786;-71
2023/01/21 10:00:15;;;;;;;28.60;19.73;;;0.60;99.90;;;;;;5053175;28;20510;-71
2023/01/21 10:02:47;;;;;;;26.77;19.23;;;0.60;99.90;;;;;;5053976;28;20922;-70
2023/01/21 10:05:34;;;;;;;27.37;18.70;;;0.80;99.90;;;;;;5036073;28;20167;-71
2023/01/21 10:08:21;;;;;;;27.73;19.30;;;0.80;99.90;;;;;;5054116;28;20481;-71
2023/01/21 10:11:17;;;;;;;31.00;21.73;;;0.70;99.90;;;;;;5054075;28;20452;-72
2023/01/21 10:14:11;;;;;;;31.67;21.90;;;0.70;99.90;;;;;;5019622;28;20414;-71
2023/01/21 10:17:08;;;;;;;27.17;20.20;;;0.60;99.90;;;;;;5053942;28;20530;-71
2023/01/21 10:20:09;;;;;;;30.07;20.73;;;0.30;99.90;;;;;;5045509;28;20443;-71
2023/01/21 10:22:35;;;;;;;31.70;23.50;;;0.30;99.90;;;;;;5048220;28;20466;-70
2023/01/21 10:25:13;;;;;;;31.70;23.17;;;0.30;99.90;;;;;;5053528;28;20401;-71
2023/01/21 10:27:41;;;;;;;30.70;22.33;;;0.50;99.90;;;;;;5054019;28;20940;-71
2023/01/21 10:30:19;;;;;;;32.90;23.67;;;0.70;99.90;;;;;;5051651;28;20460;-71
2023/01/21 10:32:48;;;;;;;23.80;18.30;;;0.90;99.90;;;;;;5035572;28;20760;-71
2023/01/21 10:35:23;;;;;;;28.20;20.50;;;0.80;99.90;;;;;;5053426;28;20908;-71
2023/01/21 10:38:05;;;;;;;27.70;18.57;;;0.60;99.90;;;;;;5053639;28;20410;-71
2023/01/21 10:40:47;;;;;;;23.60;16.43;;;0.30;99.90;;;;;;5035795;28;20440;-71
2023/01/21 10:43:28;;;;;;;22.50;17.70;;;0.30;99.90;;;;;;5037685;28;20483;-71
2023/01/21 10:46:14;;;;;;;27.90;17.73;;;0.40;99.90;;;;;;5053149;28;20407;-70
2023/01/21 10:48:48;;;;;;;23.30;17.73;;;0.50;99.90;;;;;;5035413;28;20791;-71
2023/01/21 10:51:33;;;;;;;21.47;16.63;;;0.60;99.90;;;;;;5098700;22;20497;-72
2023/01/21 10:54:28;;;;;;;28.43;20.23;;;0.50;99.90;;;;;;5074061;28;20380;-72
2023/01/21 10:57:19;;;;;;;29.77;20.53;;;0.50;99.90;;;;;;5072951;28;20404;-72
2023/01/21 10:59:46;;;;;;;29.07;21.27;;;0.60;99.90;;;;;;5054566;28;20810;-70
2023/01/21 11:02:25;;;;;;;30.67;21.37;;;0.50;99.90;;;;;;5073606;28;20402;-70
2023/01/21 11:04:51;;;;;;;32.27;20.90;;;0.80;99.90;;;;;;5073304;28;20387;-71
2023/01/21 11:07:20;;;;;;;31.40;21.47;;;0.90;99.90;;;;;;5073145;28;20529;-70
2023/01/21 11:09:47;;;;;;;31.40;21.23;;;1.00;99.90;;;;;;5073017;28;20475;-71
2023/01/21 11:12:17;;;;;;;32.50;20.60;;;1.00;99.90;;;;;;5072470;28;20976;-71
2023/01/21 11:14:54;;;;;;;30.60;20.67;;;0.90;99.90;;;;;;5072782;28;20406;-71
2023/01/21 11:17:37;;;;;;;28.07;19.13;;;0.60;99.90;;;;;;5072997;28;20392;-71
2023/01/21 11:20:26;;;;;;;26.10;18.50;;;0.50;99.90;;;;;;5054477;28;20446;-71
2023/01/21 11:22:52;;;;;;;24.63;19.50;;;0.60;99.90;;;;;;5054347;28;20503;-71
2023/01/21 11:25:31;;;;;;;25.53;19.80;;;0.60;99.90;;;;;;5072740;28;20494;-71
2023/01/21 11:27:57;;;;;;;25.70;19.27;;;0.50;99.90;;;;;;5072909;28;20200;-71
2023/01/21 11:30:32;;;;;;;29.93;21.63;;;0.50;99.90;;;;;;5053037;28;21027;-72
2023/01/21 11:33:31;;;;;;;28.17;20.83;;;0.60;99.90;;;;;;5072698;28;20165;-71
2023/01/21 11:36:09;;;;;;;30.77;19.50;;;0.70;99.90;;;;;;5072202;28;20435;-73
2023/01/21 11:38:35;;;;;;;30.50;21.03;;;0.80;99.90;;;;;;5072607;28;20764;-71
2023/01/21 11:41:08;;;;;;;40.60;25.07;;;0.90;99.90;;;;;;5072667;28;20439;-70
2023/01/21 11:43:39;;;;;;;28.97;21.83;;;0.80;99.90;;;;;;5072664;28;20393;-72
2023/01/21 11:46:39;;;;;;;24.90;18.00;;;1.00;99.90;;;;;;5066305;28;20756;-72
2023/01/21 11:49:08;;;;;;;27.67;18.80;;;0.90;99.90;;;;;;5052035;28;20459;-70
2023/01/21 11:51:35;;;;;;;26.80;19.40;;;0.70;99.90;;;;;;5054342;28;20416;-71
2023/01/21 11:54:24;;;;;;;24.40;18.70;;;0.80;99.90;;;;;;5051881;28;20404;-71
2023/01/21 11:57:00;;;;;;;23.03;16.57;;;0.90;99.90;;;;;;5034778;28;20396;-71
2023/01/21 11:59:28;;;;;;;31.07;19.77;;;0.80;99.90;;;;;;5052338;28;20431;-71
2023/01/21 12:02:04;;;;;;;24.30;17.47;;;0.80;99.90;;;;;;5073779;28;20832;-71
2023/01/21 12:04:31;;;;;;;25.20;18.13;;;0.90;99.90;;;;;;5073893;28;20463;-72
2023/01/21 12:06:59;;;;;;;26.90;18.90;;;0.90;99.90;;;;;;5072884;28;20749;-70
2023/01/21 12:09:26;;;;;;;29.33;18.60;;;1.00;99.90;;;;;;5076613;28;20508;-72
2023/01/21 12:12:28;;;;;;;25.47;17.87;;;1.00;99.90;;;;;;5059383;28;20408;-72
2023/01/21 12:14:57;;;;;;;28.07;19.03;;;1.10;99.90;;;;;;5075984;28;20483;-72
2023/01/21 12:17:34;;;;;;;25.63;18.97;;;1.30;99.90;;;;;;5076051;28;20412;-72
2023/01/21 12:20:28;;;;;;;23.40;18.07;;;1.20;99.90;;;;;;5075963;28;20776;-71
2023/01/21 12:23:18;;;;;;;23.90;17.50;;;1.10;99.90;;;;;;5076874;28;20851;-71
2023/01/21 12:26:02;;;;;;;23.63;17.60;;;0.90;99.90;;;;;;5076127;28;20706;-71
2023/01/21 12:28:42;;;;;;;26.97;17.33;;;0.90;99.90;;;;;;5076252;28;20885;-71
2023/01/21 12:31:22;;;;;;;27.27;17.40;;;1.00;99.90;;;;;;5056559;28;20543;-71
2023/01/21 12:34:06;;;;;;;28.07;16.93;;;1.20;99.90;;;;;;5058019;28;20509;-71
2023/01/21 12:36:38;;;;;;;25.20;16.50;;;0.90;99.90;;;;;;5075782;28;20483;-72
2023/01/21 12:39:13;;;;;;;22.73;17.10;;;1.00;99.90;;;;;;5058062;28;20396;-72
2023/01/21 12:41:43;;;;;;;25.33;17.63;;;1.10;99.90;;;;;;5075998;28;20384;-71
2023/01/21 12:44:32;;;;;;;21.73;16.40;;;1.30;99.90;;;;;;5075940;28;20418;-71
2023/01/21 12:47:05;;;;;;;24.10;16.10;;;1.10;99.90;;;;;;5075779;28;20433;-70
2023/01/21 12:49:58;;;;;;;29.70;17.50;;;1.10;99.90;;;;;;5075306;28;20873;-71
2023/01/21 12:52:31;;;;;;;27.87;19.10;;;1.20;99.90;;;;;;5075939;28;20453;-73
2023/01/21 12:55:06;;;;;;;27.80;17.90;;;1.30;99.90;;;;;;5075746;28;20428;-72
2023/01/21 12:57:48;;;;;;;24.00;17.43;;;1.30;99.90;;;;;;5075600;28;20410;-72